sensor_id;sensor_type;location;lat;lon;timestamp;pressure;altitude;pressure_sealevel;temperature;humidity
29379;BME280;16362;47.202;15.258;2023-08-06T00:08:12;95003.97;;;14.01;100.00
29379;BME280;16362;47.202;15.258;2023-08-06T00:14:31;94990.81;;;13.99;100.00
29379;BME280;16362;47.202;15.258;2023-08-06T00:20:49;94994.59;;;13.91;100.00
29379;BME280;16362;47.202;15.258;2023-08-06T00:27:08;94989.72;;;14.00;100.00
29379;BME280;16362;47.202;15.258;2023-08-06T00:33:27;94997.44;;;13.96;100.00
29379;BME280;16362;47.202;15.258;2023-08-06T00:39:46;94997.16;;;13.86;100.00
29379;BME280;16362;47.202;15.258;2023-08-06T00:46:04;94996.47;;;13.91;100.00
29379;BME280;16362;47.202;15.258;2023-08-06T00:52:24;95009.06;;;13.90;100.00
29379;BME280;16362;47.202;15.258;2023-08-06T00:58:45;95010.94;;;13.90;100.00
29379;BME280;16362;47.202;15.258;2023-08-06T01:16:26;94989.19;;;13.79;100.00
29379;BME280;16362;47.202;15.258;2023-08-06T01:22:45;94991.19;;;13.84;100.00
29379;BME280;16362;47.202;15.258;2023-08-06T01:29:13;94966.63;;;13.87;100.00
29379;BME280;16362;47.202;15.258;2023-08-06T01:35:34;94956.78;;;13.81;100.00
29379;BME280;16362;47.202;15.258;2023-08-06T01:41:53;94957.00;;;13.79;100.00
29379;BME280;16362;47.202;15.258;2023-08-06T01:48:12;94933.56;;;13.75;100.00
29379;BME280;16362;47.202;15.258;2023-08-06T01:54:31;94940.22;;;13.84;100.00
29379;BME280;16362;47.202;15.258;2023-08-06T02:00:50;94940.69;;;13.81;100.00
29379;BME280;16362;47.202;15.258;2023-08-06T02:12:08;94935.97;;;13.64;100.00
29379;BME280;16362;47.202;15.258;2023-08-06T02:18:27;94940.94;;;13.61;100.00
29379;BME280;16362;47.202;15.258;2023-08-06T02:24:46;94934.31;;;13.63;100.00
29379;BME280;16362;47.202;15.258;2023-08-06T02:31:07;94923.91;;;13.55;100.00
29379;BME280;16362;47.202;15.258;2023-08-06T02:37:26;94923.09;;;13.55;100.00
29379;BME280;16362;47.202;15.258;2023-08-06T02:43:44;94922.66;;;13.58;100.00
29379;BME280;16362;47.202;15.258;2023-08-06T02:50:03;94916.34;;;13.52;100.00
29379;BME280;16362;47.202;15.258;2023-08-06T02:56:22;94909.78;;;13.48;100.00
29379;BME280;16362;47.202;15.258;2023-08-06T03:02:41;94915.97;;;13.48;100.00
29379;BME280;16362;47.202;15.258;2023-08-06T03:13:31;94925.13;;;13.41;100.00
29379;BME280;16362;47.202;15.258;2023-08-06T03:19:49;94928.63;;;13.41;100.00
29379;BME280;16362;47.202;15.258;2023-08-06T03:26:08;94928.41;;;13.43;100.00
29379;BME280;16362;47.202;15.258;2023-08-06T03:32:27;94931.53;;;13.40;100.00
29379;BME280;16362;47.202;15.258;2023-08-06T03:38:45;94919.19;;;13.39;100.00
29379;BME280;16362;47.202;15.258;2023-08-06T03:45:04;94911.78;;;13.34;100.00
29379;BME280;16362;47.202;15.258;2023-08-06T03:51:22;94908.75;;;13.30;100.00
29379;BME280;16362;47.202;15.258;2023-08-06T03:57:41;94908.75;;;13.30;100.00
29379;BME280;16362;47.202;15.258;2023-08-06T04:03:59;94912.84;;;13.33;100.00
29379;BME280;16362;47.202;15.258;2023-08-06T04:14:50;94908.59;;;13.44;100.00
29379;BME280;16362;47.202;15.258;2023-08-06T04:21:10;94896.16;;;13.50;100.00
29379;BME280;16362;47.202;15.258;2023-08-06T04:27:29;94894.28;;;13.50;100.00
29379;BME280;16362;47.202;15.258;2023-08-06T04:33:49;94900.09;;;13.47;100.00
29379;BME280;16362;47.202;15.258;2023-08-06T04:39:58;94894.75;;;13.47;100.00
29379;BME280;16362;47.202;15.258;2023-08-06T04:46:07;94899.72;;;13.43;100.00
29379;BME280;16362;47.202;15.258;2023-08-06T04:52:16;94900.56;;;13.44;100.00
29379;BME280;16362;47.202;15.258;2023-08-06T04:58:24;94914.22;;;13.54;100.00
29379;BME280;16362;47.202;15.258;2023-08-06T05:04:33;94922.16;;;13.49;100.00
29379;BME280;16362;47.202;15.258;2023-08-06T05:15:13;94944.78;;;13.53;100.00
29379;BME280;16362;47.202;15.258;2023-08-06T05:21:31;94958.38;;;13.52;100.00
29379;BME280;16362;47.202;15.258;2023-08-06T05:27:50;94962.28;;;13.56;100.00
29379;BME280;16362;47.202;15.258;2023-08-06T05:34:08;94974.03;;;13.55;100.00
29379;BME280;16362;47.202;15.258;2023-08-06T05:40:27;94978.25;;;13.62;100.00
29379;BME280;16362;47.202;15.258;2023-08-06T05:46:46;94976.31;;;13.70;100.00
29379;BME280;16362;47.202;15.258;2023-08-06T05:53:04;94990.91;;;13.74;100.00
29379;BME280;16362;47.202;15.258;2023-08-06T05:59:23;94978.47;;;13.79;100.00
29379;BME280;16362;47.202;15.258;2023-08-06T06:05:42;94976.50;;;13.87;100.00
29379;BME280;16362;47.202;15.258;2023-08-06T06:16:18;94985.88;;;13.96;100.00
29379;BME280;16362;47.202;15.258;2023-08-06T06:22:37;94986.97;;;14.07;100.00
29379;BME280;16362;47.202;15.258;2023-08-06T06:28:56;94995.75;;;14.14;100.00
29379;BME280;16362;47.202;15.258;2023-08-06T06:35:15;95005.34;;;14.22;100.00
29379;BME280;16362;47.202;15.258;2023-08-06T06:41:36;95006.50;;;14.26;100.00
29379;BME280;16362;47.202;15.258;2023-08-06T06:47:54;94997.56;;;14.32;100.00
29379;BME280;16362;47.202;15.258;2023-08-06T06:54:13;94986.84;;;14.44;100.00
29379;BME280;16362;47.202;15.258;2023-08-06T07:00:32;94990.94;;;14.46;100.00
29379;BME280;16362;47.202;15.258;2023-08-06T07:06:50;94978.00;;;14.55;100.00
29379;BME280;16362;47.202;15.258;2023-08-06T07:17:14;94984.06;;;14.62;100.00
29379;BME280;16362;47.202;15.258;2023-08-06T07:23:33;94981.72;;;14.54;100.00
29379;BME280;16362;47.202;15.258;2023-08-06T07:29:52;94968.44;;;14.59;100.00
29379;BME280;16362;47.202;15.258;2023-08-06T07:36:14;94973.09;;;14.52;100.00
29379;BME280;16362;47.202;15.258;2023-08-06T07:42:34;94969.25;;;14.60;100.00
29379;BME280;16362;47.202;15.258;2023-08-06T07:48:42;94954.47;;;14.69;100.00
29379;BME280;16362;47.202;15.258;2023-08-06T07:54:52;94957.50;;;14.73;100.00
29379;BME280;16362;47.202;15.258;2023-08-06T08:01:00;94953.91;;;14.67;100.00
29379;BME280;16362;47.202;15.258;2023-08-06T08:07:12;94947.56;;;14.73;100.00
29379;BME280;16362;47.202;15.258;2023-08-06T08:17:52;94950.06;;;14.75;100.00
29379;BME280;16362;47.202;15.258;2023-08-06T08:24:11;94962.41;;;14.76;100.00
29379;BME280;16362;47.202;15.258;2023-08-06T08:30:30;94954.69;;;14.68;100.00
29379;BME280;16362;47.202;15.258;2023-08-06T08:36:49;94949.16;;;14.62;100.00
29379;BME280;16362;47.202;15.258;2023-08-06T08:43:09;94959.81;;;14.57;100.00
29379;BME280;16362;47.202;15.258;2023-08-06T08:49:27;94981.84;;;14.59;100.00
29379;BME280;16362;47.202;15.258;2023-08-06T08:55:49;94974.16;;;14.51;100.00
29379;BME280;16362;47.202;15.258;2023-08-06T09:02:11;94976.50;;;14.59;100.00
29379;BME280;16362;47.202;15.258;2023-08-06T09:08:37;94989.38;;;14.69;100.00
29379;BME280;16362;47.202;15.258;2023-08-06T09:19:29;94994.06;;;14.74;100.00
29379;BME280;16362;47.202;15.258;2023-08-06T09:25:47;95004.19;;;14.72;100.00
29379;BME280;16362;47.202;15.258;2023-08-06T09:32:06;94999.56;;;14.91;100.00
29379;BME280;16362;47.202;15.258;2023-08-06T09:38:25;95012.63;;;14.99;100.00
29379;BME280;16362;47.202;15.258;2023-08-06T09:45:06;95020.00;;;15.27;100.00
29379;BME280;16362;47.202;15.258;2023-08-06T09:51:16;94998.97;;;15.48;100.00
29379;BME280;16362;47.202;15.258;2023-08-06T09:57:26;95021.63;;;15.52;100.00
29379;BME280;16362;47.202;15.258;2023-08-06T10:03:36;95014.31;;;15.88;100.00
29379;BME280;16362;47.202;15.258;2023-08-06T10:09:45;95019.41;;;16.13;100.00
29379;BME280;16362;47.202;15.258;2023-08-06T10:20:27;95015.72;;;16.48;100.00
29379;BME280;16362;47.202;15.258;2023-08-06T10:26:50;95027.50;;;16.59;100.00
29379;BME280;16362;47.202;15.258;2023-08-06T10:33:03;95031.94;;;16.82;100.00
29379;BME280;16362;47.202;15.258;2023-08-06T10:39:14;95033.84;;;17.16;100.00
29379;BME280;16362;47.202;15.258;2023-08-06T10:45:38;95031.47;;;17.59;100.00
29379;BME280;16362;47.202;15.258;2023-08-06T10:52:10;95029.88;;;17.97;100.00
29379;BME280;16362;47.202;15.258;2023-08-06T10:58:35;95029.97;;;18.29;100.00
29379;BME280;16362;47.202;15.258;2023-08-06T11:05:03;95028.66;;;18.10;100.00
29379;BME280;16362;47.202;15.258;2023-08-06T11:11:18;95028.25;;;17.79;100.00
29379;BME280;16362;47.202;15.258;2023-08-06T11:22:00;95022.44;;;17.48;100.00
29379;BME280;16362;47.202;15.258;2023-08-06T11:28:12;95017.97;;;17.37;100.00
29379;BME280;16362;47.202;15.258;2023-08-06T11:34:26;95011.47;;;17.55;100.00
29379;BME280;16362;47.202;15.258;2023-08-06T11:40:53;95004.53;;;17.81;100.00
